createdAt,value
2017-06-23T09:52:49.431Z,275
2017-06-23T09:53:47.897Z,245
2017-06-23T09:54:47.261Z,280
2017-06-23T09:55:48.032Z,280
2017-06-23T09:56:47.038Z,280
2017-06-23T09:57:46.062Z,280
2017-06-23T09:58:46.060Z,275
2017-06-23T09:59:47.984Z,265
2017-06-23T10:00:47.660Z,260
2017-06-23T10:01:46.865Z,265
2017-06-23T10:02:47.591Z,245
2017-06-23T10:03:47.734Z,230
2017-06-23T10:04:47.566Z,275
2017-06-23T10:05:47.018Z,275
2017-06-23T10:06:47.744Z,285
2017-06-23T10:07:46.540Z,230
2017-06-23T10:08:47.770Z,230
2017-06-23T10:09:47.747Z,235
2017-06-23T10:10:47.122Z,240
2017-06-23T10:11:48.113Z,290
2017-06-23T10:12:47.322Z,280
2017-06-23T10:13:48.181Z,285
2017-06-23T10:14:46.524Z,280
2017-06-23T10:15:47.281Z,275
2017-06-23T10:16:47.765Z,250
2017-06-23T10:17:47.015Z,245
2017-06-23T10:18:48.198Z,255
2017-06-23T10:19:47.121Z,245
2017-06-23T10:20:47.184Z,300
2017-06-23T10:21:47.130Z,250
2017-06-23T10:22:46.918Z,250
2017-06-23T10:23:46.844Z,260
2017-06-23T10:24:46.845Z,295
2017-06-23T10:25:47.399Z,260
2017-06-23T10:26:46.863Z,305
2017-06-23T10:27:46.923Z,285
2017-06-23T10:28:46.589Z,300
2017-06-23T10:29:47.214Z,285
2017-06-23T10:30:46.898Z,290
2017-06-23T10:31:46.963Z,295
2017-06-23T10:32:46.900Z,295
2017-06-23T10:33:46.669Z,295
2017-06-23T10:34:47.226Z,295
2017-06-23T10:35:47.257Z,295
2017-06-23T10:36:46.302Z,295
2017-06-23T10:37:47.053Z,295
2017-06-23T11:43:25.497Z,330
2017-06-23T11:43:40.681Z,330
2017-06-23T11:44:41.309Z,330
2017-06-23T11:45:41.650Z,330
2017-06-23T11:46:41.338Z,330
2017-06-23T11:50:34.346Z,310
2017-06-23T11:51:24.298Z,305
2017-06-23T11:52:24.249Z,305
2017-06-23T11:53:24.239Z,300
2017-06-23T11:54:25.750Z,295
2017-06-23T11:55:24.366Z,285
2017-06-23T11:56:23.957Z,290
2017-06-23T11:57:24.331Z,275
2017-06-23T11:58:23.980Z,275
2017-06-23T11:59:23.689Z,280
2017-06-23T12:00:23.835Z,285
2017-06-23T12:01:24.048Z,275
2017-06-23T12:02:23.999Z,275
2017-06-23T12:03:24.024Z,280
2017-06-23T12:04:24.410Z,280
2017-06-23T12:05:24.505Z,290
2017-06-23T12:06:24.140Z,285
2017-06-23T12:07:24.351Z,280
2017-06-23T12:08:23.471Z,280
2017-06-23T12:09:24.088Z,280
2017-06-23T12:10:24.175Z,280
2017-06-23T12:11:23.809Z,290
2017-06-23T12:12:24.085Z,285
2017-06-23T12:13:24.103Z,285
2017-06-23T12:14:24.104Z,280
2017-06-23T12:15:24.479Z,280
2017-06-23T12:16:24.172Z,280
2017-06-23T12:17:23.863Z,285
2017-06-23T12:18:24.134Z,280
2017-06-23T12:19:24.503Z,285
2017-06-23T12:20:24.083Z,290
2017-06-23T12:21:24.164Z,290
2017-06-23T12:22:23.928Z,285
2017-06-23T12:23:24.507Z,285
2017-06-23T12:24:24.548Z,295
2017-06-23T12:25:23.937Z,285
2017-06-23T12:26:24.199Z,285
2017-06-23T12:27:24.522Z,285
2017-06-23T12:28:24.549Z,285
2017-06-23T12:29:24.553Z,285
2017-06-23T12:30:24.107Z,280
2017-06-23T12:31:26.410Z,275
2017-06-23T12:32:23.924Z,275
2017-06-23T12:33:24.647Z,270
2017-06-23T12:34:24.255Z,275
2017-06-23T12:35:24.205Z,280
2017-06-23T12:36:24.280Z,275
2017-06-23T12:37:24.355Z,275
2017-06-23T12:38:24.648Z,275
2017-06-23T12:39:24.627Z,275
2017-06-23T12:40:24.341Z,285
2017-06-23T12:41:24.351Z,285
2017-06-23T12:42:23.697Z,285
2017-06-23T12:43:24.642Z,285
2017-06-23T12:44:24.338Z,285
2017-06-23T12:45:24.588Z,290
2017-06-23T12:46:24.427Z,295
2017-06-23T12:47:24.393Z,295
2017-06-23T12:48:24.059Z,295
2017-06-23T12:49:24.701Z,295
2017-06-23T12:50:24.585Z,300
2017-06-23T12:51:24.403Z,295
2017-06-23T12:52:24.770Z,295
2017-06-23T12:53:24.412Z,305
2017-06-23T12:54:24.762Z,300
2017-06-23T12:55:24.418Z,300
2017-06-23T12:56:24.150Z,300
2017-06-23T12:57:24.787Z,300
2017-06-23T12:58:24.448Z,300
2017-06-23T12:59:24.771Z,310
2017-06-23T13:00:24.389Z,300
2017-06-23T13:01:25.346Z,300
2017-06-23T13:02:24.482Z,300
2017-06-23T13:03:24.801Z,295
2017-06-23T13:04:24.515Z,300
2017-06-23T13:05:24.861Z,300
2017-06-23T13:06:24.864Z,305
2017-06-23T13:07:24.542Z,305
2017-06-23T13:08:24.854Z,305
2017-06-23T13:09:24.550Z,305
2017-06-23T13:10:24.965Z,305
2017-06-23T13:11:24.865Z,300
2017-06-23T13:12:23.982Z,290
2017-06-23T13:13:24.569Z,285
2017-06-23T13:14:24.906Z,295
2017-06-23T13:15:25.021Z,295
2017-06-23T13:16:24.684Z,300
2017-06-23T13:17:49.760Z,300
2017-06-23T13:18:24.930Z,305
2017-06-23T13:19:24.624Z,300
2017-06-23T13:20:24.652Z,300
2017-06-23T13:21:24.692Z,300
2017-06-23T13:22:24.968Z,300
2017-06-23T13:23:24.990Z,295
2017-06-23T13:24:24.989Z,295
2017-06-23T13:25:24.985Z,290
2017-06-23T13:26:24.703Z,290
2017-06-23T13:27:24.395Z,290
2017-06-23T13:28:25.008Z,285
2017-06-23T13:29:25.029Z,290
2017-06-23T13:30:25.026Z,285
2017-06-23T13:31:28.473Z,290
2017-06-23T13:32:25.072Z,300
2017-06-23T13:33:25.042Z,300
2017-06-23T13:34:24.423Z,290
2017-06-23T13:35:24.570Z,285
2017-06-23T13:36:24.753Z,280
2017-06-23T13:37:24.829Z,285
2017-06-23T13:38:24.458Z,255
2017-06-23T13:39:24.782Z,250
2017-06-23T13:40:24.486Z,280
2017-06-23T13:41:25.106Z,280
2017-06-23T13:42:25.139Z,280
2017-06-23T13:43:24.811Z,260
2017-06-23T13:44:24.827Z,275
2017-06-23T13:45:24.521Z,285
2017-06-23T13:46:25.167Z,280
2017-06-23T13:47:24.840Z,275
2017-06-23T13:48:24.871Z,275
2017-06-23T13:49:24.861Z,275
2017-06-23T13:50:24.869Z,260
2017-06-23T13:51:25.338Z,270
2017-06-23T13:52:25.161Z,265
2017-06-23T13:53:25.145Z,260
2017-06-23T13:54:24.983Z,265
2017-06-23T13:55:25.274Z,265
2017-06-23T13:56:24.601Z,265
2017-06-23T13:57:24.929Z,265
2017-06-23T13:58:25.309Z,265
2017-06-23T13:59:25.312Z,260
2017-06-23T14:00:25.262Z,260
2017-06-23T14:01:24.973Z,260
2017-06-23T14:02:25.077Z,260
2017-06-23T14:03:24.980Z,255
2017-06-23T14:04:24.689Z,255
2017-06-23T14:05:25.304Z,255
2017-06-23T14:06:25.304Z,255
2017-06-23T14:07:25.006Z,255
2017-06-23T14:08:25.323Z,255
2017-06-23T14:09:25.344Z,250
2017-06-23T14:10:25.342Z,260
2017-06-23T14:11:25.038Z,250
2017-06-23T14:12:25.362Z,255
2017-06-23T14:13:24.750Z,250
2017-06-23T14:14:25.073Z,250
2017-06-23T14:15:25.377Z,250
2017-06-23T14:16:25.074Z,250
2017-06-23T14:17:25.197Z,250
2017-06-23T14:18:24.780Z,250
2017-06-23T14:19:25.406Z,255
2017-06-23T14:20:25.462Z,255
2017-06-23T14:21:25.137Z,250
2017-06-23T14:22:24.834Z,250
2017-06-23T14:23:25.148Z,255
2017-06-23T14:24:25.166Z,255
2017-06-23T14:25:25.171Z,255
2017-06-23T14:26:25.494Z,260
2017-06-23T14:27:25.229Z,255
2017-06-23T14:28:25.495Z,255
2017-06-23T14:29:25.506Z,260
2017-06-23T14:30:25.154Z,260
2017-06-23T14:31:25.218Z,260
2017-06-23T14:32:26.375Z,260
2017-06-23T14:33:24.892Z,260
2017-06-23T14:34:25.541Z,265
2017-06-23T14:35:25.003Z,265
2017-06-23T14:36:25.568Z,260
2017-06-23T14:37:25.590Z,265
2017-06-23T14:38:25.265Z,265
2017-06-23T14:39:24.626Z,270
2017-06-23T14:40:25.328Z,270
2017-06-23T14:41:25.315Z,270
2017-06-23T14:42:25.354Z,270
2017-06-23T14:43:25.696Z,280
2017-06-23T14:44:25.648Z,280
2017-06-23T14:45:25.636Z,280
2017-06-23T14:46:25.623Z,275
2017-06-23T14:47:25.701Z,285
2017-06-23T14:48:25.655Z,275
2017-06-23T14:49:25.655Z,275
2017-06-23T14:50:25.380Z,280
2017-06-23T14:51:25.373Z,275
2017-06-23T14:52:25.056Z,275
2017-06-23T14:53:25.685Z,275
2017-06-23T14:54:25.372Z,275
2017-06-23T14:55:25.065Z,275
2017-06-23T14:56:25.708Z,275
2017-06-23T14:57:25.091Z,275
2017-06-23T14:58:25.737Z,275
2017-06-23T14:59:25.741Z,270
2017-06-23T15:00:25.743Z,270
2017-06-23T15:01:25.448Z,275
2017-06-23T15:02:25.812Z,270
2017-06-23T15:03:25.516Z,270
2017-06-23T15:04:25.454Z,270
2017-06-23T15:05:25.797Z,275
2017-06-23T15:06:25.472Z,275
2017-06-23T15:07:25.906Z,280
2017-06-23T15:08:25.195Z,280
2017-06-23T15:09:25.184Z,275
2017-06-23T15:10:25.821Z,275
2017-06-23T15:11:25.540Z,275
2017-06-23T15:12:25.551Z,270
2017-06-23T15:13:25.850Z,270
2017-06-23T15:14:25.853Z,270
2017-06-23T15:15:25.852Z,265
2017-06-23T15:16:25.877Z,265
2017-06-23T15:17:25.873Z,265
2017-06-23T15:18:25.945Z,265
2017-06-23T15:19:25.256Z,260
2017-06-23T15:20:25.910Z,260
2017-06-23T15:21:25.913Z,260
2017-06-23T15:22:25.669Z,260
2017-06-23T15:23:25.920Z,265
2017-06-23T15:24:25.930Z,260
2017-06-23T15:25:25.655Z,260
2017-06-23T15:26:25.663Z,255
2017-06-23T15:27:25.661Z,255
2017-06-23T15:28:26.004Z,255
2017-06-23T15:29:25.672Z,250
2017-06-23T15:37:05.213Z,245
2017-06-23T15:37:14.875Z,240
2017-06-23T15:38:15.198Z,240
2017-06-23T15:39:15.278Z,235
2017-06-23T15:40:16.411Z,230
2017-06-23T15:41:15.223Z,230
2017-06-23T15:42:15.568Z,225
2017-06-23T15:43:15.577Z,225
2017-06-23T15:44:15.632Z,220
2017-06-23T15:45:17.213Z,220
2017-06-23T15:46:15.609Z,220
2017-06-23T15:47:17.187Z,215
2017-06-23T15:48:15.578Z,210
2017-06-23T15:49:15.617Z,210
2017-06-23T15:50:16.024Z,205
2017-06-23T15:51:15.621Z,210
2017-06-23T15:52:15.163Z,205
2017-06-23T15:53:15.683Z,210
2017-06-23T15:54:15.042Z,210
2017-06-23T15:55:16.375Z,210
2017-06-23T15:56:15.640Z,210
2017-06-23T15:57:15.648Z,210
2017-06-23T15:58:15.353Z,210
2017-06-23T15:59:15.670Z,210
2017-06-23T16:00:15.528Z,205
2017-06-23T16:01:15.363Z,205
2017-06-23T16:02:15.684Z,200
2017-06-23T16:03:15.876Z,200
2017-06-23T16:04:15.378Z,195
2017-06-23T16:05:16.686Z,195
2017-06-23T16:06:15.395Z,200
2017-06-23T16:07:16.012Z,195
2017-06-23T16:08:15.128Z,200
2017-06-23T16:09:15.735Z,200
2017-06-23T16:10:16.973Z,195
2017-06-23T16:11:15.769Z,200
2017-06-23T16:12:15.441Z,200
2017-06-23T16:13:15.774Z,200
2017-06-23T16:14:15.474Z,195
2017-06-23T16:15:16.706Z,195
2017-06-23T16:16:15.468Z,195
2017-06-23T16:17:15.787Z,195
2017-06-23T16:18:15.482Z,195
2017-06-23T16:19:15.491Z,195
2017-06-23T16:20:17.353Z,195
2017-06-23T16:21:15.819Z,195
2017-06-23T16:22:15.668Z,195
2017-06-23T16:23:15.534Z,195
2017-06-23T16:24:15.852Z,195
2017-06-23T16:25:17.272Z,195
2017-06-23T16:26:15.547Z,190
2017-06-23T16:27:15.550Z,195
2017-06-23T16:28:15.549Z,195
2017-06-23T16:29:15.587Z,195
2017-06-23T16:30:17.331Z,195
2017-06-23T16:31:15.605Z,195
2017-06-23T16:32:15.899Z,195
2017-06-23T16:33:15.913Z,195
2017-06-23T16:34:15.908Z,195
2017-06-23T16:35:17.086Z,195
2017-06-23T16:36:15.925Z,195
2017-06-23T16:37:16.951Z,195
2017-06-23T16:38:15.645Z,195
2017-06-23T16:39:15.976Z,195
2017-06-23T16:40:17.147Z,195
2017-06-23T16:41:15.645Z,190
2017-06-23T16:42:15.989Z,190
2017-06-23T16:43:15.687Z,190
2017-06-23T16:44:15.673Z,190
2017-06-23T16:45:16.561Z,185
2017-06-23T16:46:15.881Z,185
2017-06-23T16:47:15.696Z,185
2017-06-23T16:48:15.694Z,185
2017-06-23T16:49:15.694Z,185
2017-06-23T16:50:17.383Z,185
2017-06-23T16:51:16.052Z,180
2017-06-23T16:52:15.819Z,180
2017-06-23T16:53:15.726Z,180
2017-06-23T16:54:16.187Z,180
2017-06-23T16:55:17.143Z,180
2017-06-23T16:56:15.756Z,180
2017-06-23T16:57:16.081Z,175
2017-06-23T16:58:15.450Z,170
2017-06-23T16:59:16.104Z,170
2017-06-23T17:00:16.714Z,175
2017-06-23T17:01:16.100Z,175
2017-06-23T17:02:16.154Z,175
2017-06-23T17:03:15.795Z,175
2017-06-23T17:04:15.911Z,175
2017-06-23T17:05:17.184Z,175
2017-06-23T17:06:16.191Z,175
2017-06-23T17:07:21.697Z,175
2017-06-23T17:08:15.857Z,175
2017-06-23T17:09:16.186Z,170
2017-06-23T17:10:17.518Z,170
2017-06-23T17:11:15.882Z,170
2017-06-23T17:12:15.549Z,170
2017-06-23T17:13:16.220Z,170
2017-06-23T17:14:15.274Z,170
2017-06-23T17:15:16.145Z,165
2017-06-23T17:16:15.587Z,165
2017-06-23T17:17:15.908Z,165
2017-06-23T17:18:15.630Z,165
2017-06-23T17:19:16.247Z,165
2017-06-23T17:20:17.410Z,165
2017-06-23T17:21:16.231Z,160
2017-06-23T17:22:15.942Z,160
2017-06-23T17:23:16.294Z,165
2017-06-23T17:24:15.940Z,165
2017-06-23T17:25:16.989Z,160
2017-06-23T17:26:16.268Z,160
2017-06-23T17:27:15.952Z,160
2017-06-23T17:28:15.964Z,160
2017-06-23T17:29:15.995Z,160
2017-06-23T17:30:16.733Z,160
2017-06-23T17:31:16.312Z,155
2017-06-23T17:32:15.987Z,155
2017-06-23T17:33:16.323Z,155
2017-06-23T17:34:15.704Z,155
2017-06-23T17:35:17.562Z,155
2017-06-23T17:36:16.010Z,160
2017-06-23T17:37:16.336Z,155
2017-06-23T17:38:16.029Z,155
2017-06-23T17:39:16.041Z,155
2017-06-23T17:40:17.557Z,155
2017-06-23T17:41:16.046Z,155
2017-06-23T17:42:16.070Z,150
2017-06-23T17:43:16.058Z,150
2017-06-23T17:44:15.762Z,150
2017-06-23T17:45:16.922Z,150
2017-06-23T17:46:15.777Z,150
2017-06-23T17:47:16.088Z,150
2017-06-23T17:48:16.417Z,150
2017-06-23T17:49:16.440Z,145
2017-06-23T17:50:17.613Z,145
2017-06-23T17:51:16.423Z,145
2017-06-23T17:52:16.114Z,145
2017-06-23T17:53:15.858Z,145
2017-06-23T17:54:15.836Z,140
2017-06-23T17:55:17.568Z,140
2017-06-23T17:56:15.843Z,140
2017-06-23T17:57:16.469Z,140
2017-06-23T17:58:15.845Z,135
2017-06-23T17:59:15.229Z,135
2017-06-23T18:00:17.175Z,135
2017-06-23T18:01:16.173Z,135
2017-06-23T18:02:16.185Z,130
2017-06-23T18:03:16.197Z,130
2017-06-23T18:04:16.209Z,130
2017-06-23T18:05:17.642Z,130
2017-06-23T18:06:15.938Z,130
2017-06-23T18:07:16.552Z,125
2017-06-23T18:08:21.837Z,125
2017-06-23T18:09:16.240Z,125
2017-06-23T18:10:17.565Z,125
2017-06-23T18:11:16.282Z,125
2017-06-23T18:12:16.292Z,120
2017-06-23T18:13:16.267Z,120
2017-06-23T18:14:16.265Z,120
2017-06-23T18:15:17.123Z,120
2017-06-23T18:16:16.276Z,115
2017-06-23T18:17:16.616Z,115
2017-06-23T18:18:16.297Z,115
2017-06-23T18:19:15.691Z,115
2017-06-23T18:20:17.166Z,110
2017-06-23T18:21:16.134Z,110
2017-06-23T18:22:16.331Z,110
2017-06-23T18:23:16.055Z,110
2017-06-23T18:24:16.338Z,105
2017-06-23T18:25:17.394Z,105
2017-06-23T18:26:16.344Z,105
2017-06-23T18:27:16.037Z,100
2017-06-23T18:28:16.073Z,100
2017-06-23T18:29:15.743Z,100
2017-06-23T18:30:17.760Z,100
2017-06-23T18:31:16.376Z,95
2017-06-23T18:32:15.750Z,95
2017-06-23T18:33:16.067Z,95
2017-06-23T18:34:16.389Z,90
2017-06-23T18:35:16.830Z,90
2017-06-23T18:36:16.106Z,90
2017-06-23T18:37:16.442Z,85
2017-06-23T18:38:16.846Z,85
2017-06-23T18:39:16.445Z,85
2017-06-23T18:40:18.342Z,80
2017-06-23T18:41:16.441Z,80
2017-06-23T18:42:16.200Z,80
2017-06-23T18:43:18.805Z,75
2017-06-23T18:44:16.457Z,75
2017-06-23T18:45:18.407Z,70
2017-06-23T18:46:16.769Z,70
2017-06-23T18:47:16.243Z,70
2017-06-23T18:48:16.786Z,70
2017-06-23T18:49:15.857Z,70
2017-06-23T18:50:17.212Z,70
2017-06-23T18:51:16.487Z,65
2017-06-23T18:52:15.861Z,65
2017-06-23T18:53:16.809Z,60
2017-06-23T18:54:16.312Z,60
2017-06-23T18:55:18.855Z,60
2017-06-23T18:56:16.528Z,55
2017-06-23T18:57:16.530Z,55
2017-06-23T18:58:16.532Z,55
2017-06-23T18:59:16.223Z,50
2017-06-23T19:00:17.488Z,50
2017-06-23T19:01:16.261Z,50
2017-06-23T19:02:16.268Z,45
2017-06-23T19:03:16.660Z,45
2017-06-23T19:04:16.907Z,45
2017-06-23T19:05:18.233Z,40
2017-06-23T19:06:16.940Z,40
2017-06-23T19:07:16.393Z,40
2017-06-23T19:08:16.902Z,35
2017-06-23T19:09:18.219Z,35
2017-06-23T19:10:17.419Z,35
2017-06-23T19:11:16.602Z,30
2017-06-23T19:12:16.633Z,30
2017-06-23T19:13:16.607Z,30
2017-06-23T19:14:16.658Z,30
2017-06-23T19:15:17.965Z,25
2017-06-23T19:16:16.637Z,25
2017-06-23T19:17:16.645Z,20
2017-06-23T19:18:16.637Z,20
2017-06-23T19:19:16.964Z,20
2017-06-23T19:20:17.869Z,15
2017-06-23T19:21:16.379Z,15
2017-06-23T19:22:16.427Z,15
2017-06-23T19:23:16.984Z,15
2017-06-23T19:24:18.787Z,10
2017-06-23T19:25:17.948Z,10
2017-06-23T19:26:16.712Z,10
2017-06-23T19:27:16.697Z,10
2017-06-23T19:28:17.018Z,10
2017-06-23T19:29:16.712Z,10
2017-06-23T19:30:17.343Z,5
2017-06-23T19:31:16.714Z,5
2017-06-23T19:32:16.418Z,5
2017-06-23T19:33:16.429Z,5
2017-06-23T19:34:16.767Z,5
2017-06-23T19:35:18.723Z,5
2017-06-23T19:36:17.052Z,5
2017-06-23T19:37:17.072Z,5
2017-06-23T19:38:16.749Z,5
2017-06-23T19:39:20.195Z,0
2017-06-23T19:40:17.627Z,0
2017-06-23T19:41:17.083Z,0
2017-06-23T19:42:15.848Z,0
2017-06-23T19:43:16.778Z,0
2017-06-23T19:44:16.476Z,0
2017-06-23T19:45:17.830Z,0
2017-06-23T19:46:16.503Z,0
2017-06-23T19:47:16.813Z,0
2017-06-23T19:48:17.135Z,0
2017-06-23T19:49:17.126Z,0
2017-06-23T19:50:17.940Z,0
2017-06-23T19:51:16.515Z,0
2017-06-23T19:52:16.533Z,0
2017-06-23T19:53:17.145Z,0
2017-06-23T19:54:16.851Z,0
2017-06-23T19:55:19.917Z,0
2017-06-23T19:56:16.850Z,0
2017-06-23T19:57:16.851Z,0
2017-06-23T19:58:16.551Z,0
2017-06-23T19:59:16.874Z,0
2017-06-23T20:00:18.600Z,0
2017-06-23T20:01:16.599Z,0
2017-06-23T20:02:17.203Z,0
2017-06-23T20:03:16.919Z,0
2017-06-23T20:04:16.586Z,0
2017-06-23T20:05:17.271Z,0
2017-06-23T20:06:16.899Z,0
2017-06-23T20:07:17.242Z,0
2017-06-23T20:08:17.250Z,0
2017-06-23T20:09:16.931Z,0
2017-06-23T20:10:18.821Z,0
2017-06-23T20:11:16.961Z,0
